sensor_id;sensor_type;location;lat;lon;timestamp;P1;durP1;ratioP1;P2;durP2;ratioP2
72379;SDS011;60354;47.798;12.472;2022-11-25T00:01:24;6.82;;;4.25;;
72379;SDS011;60354;47.798;12.472;2022-11-25T00:03:51;6.40;;;4.03;;
72379;SDS011;60354;47.798;12.472;2022-11-25T00:08:55;7.90;;;4.22;;
72379;SDS011;60354;47.798;12.472;2022-11-25T00:11:23;6.57;;;3.78;;
72379;SDS011;60354;47.798;12.472;2022-11-25T00:13:49;7.18;;;3.63;;
72379;SDS011;60354;47.798;12.472;2022-11-25T00:16:15;7.05;;;4.40;;
72379;SDS011;60354;47.798;12.472;2022-11-25T00:18:43;7.63;;;4.10;;
72379;SDS011;60354;47.798;12.472;2022-11-25T00:21:10;6.82;;;3.95;;
72379;SDS011;60354;47.798;12.472;2022-11-25T00:23:41;6.68;;;4.38;;
72379;SDS011;60354;47.798;12.472;2022-11-25T00:26:08;7.75;;;3.60;;
72379;SDS011;60354;47.798;12.472;2022-11-25T00:28:35;6.88;;;3.85;;
72379;SDS011;60354;47.798;12.472;2022-11-25T00:31:20;6.05;;;3.70;;
72379;SDS011;60354;47.798;12.472;2022-11-25T00:33:47;6.47;;;4.13;;
72379;SDS011;60354;47.798;12.472;2022-11-25T00:38:45;5.97;;;3.58;;
72379;SDS011;60354;47.798;12.472;2022-11-25T00:41:11;7.35;;;3.58;;
72379;SDS011;60354;47.798;12.472;2022-11-25T00:43:55;5.82;;;3.95;;
72379;SDS011;60354;47.798;12.472;2022-11-25T00:46:40;7.55;;;3.65;;
72379;SDS011;60354;47.798;12.472;2022-11-25T00:49:06;7.57;;;4.00;;
72379;SDS011;60354;47.798;12.472;2022-11-25T00:51:31;7.28;;;3.95;;
72379;SDS011;60354;47.798;12.472;2022-11-25T00:53:57;7.63;;;4.15;;
72379;SDS011;60354;47.798;12.472;2022-11-25T00:56:22;6.57;;;3.78;;
72379;SDS011;60354;47.798;12.472;2022-11-25T00:58:48;5.75;;;3.60;;
72379;SDS011;60354;47.798;12.472;2022-11-25T01:01:13;6.15;;;3.75;;
72379;SDS011;60354;47.798;12.472;2022-11-25T01:03:39;6.93;;;4.00;;
72379;SDS011;60354;47.798;12.472;2022-11-25T01:06:06;6.78;;;3.65;;
72379;SDS011;60354;47.798;12.472;2022-11-25T01:08:34;5.40;;;3.20;;
72379;SDS011;60354;47.798;12.472;2022-11-25T01:11:01;6.82;;;3.75;;
72379;SDS011;60354;47.798;12.472;2022-11-25T01:13:28;6.60;;;3.45;;
72379;SDS011;60354;47.798;12.472;2022-11-25T01:15:54;5.72;;;3.50;;
72379;SDS011;60354;47.798;12.472;2022-11-25T01:18:20;5.78;;;3.47;;
72379;SDS011;60354;47.798;12.472;2022-11-25T01:20:45;7.20;;;4.18;;
72379;SDS011;60354;47.798;12.472;2022-11-25T01:23:11;6.07;;;3.95;;
72379;SDS011;60354;47.798;12.472;2022-11-25T01:25:37;6.65;;;3.70;;
72379;SDS011;60354;47.798;12.472;2022-11-25T01:28:03;7.07;;;3.88;;
72379;SDS011;60354;47.798;12.472;2022-11-25T01:30:29;6.78;;;3.83;;
72379;SDS011;60354;47.798;12.472;2022-11-25T01:32:57;6.80;;;3.88;;
72379;SDS011;60354;47.798;12.472;2022-11-25T01:35:25;7.00;;;3.70;;
72379;SDS011;60354;47.798;12.472;2022-11-25T01:37:50;6.13;;;3.72;;
72379;SDS011;60354;47.798;12.472;2022-11-25T01:40:16;6.85;;;3.60;;
72379;SDS011;60354;47.798;12.472;2022-11-25T01:42:42;6.07;;;3.65;;
72379;SDS011;60354;47.798;12.472;2022-11-25T01:47:48;7.07;;;3.75;;
72379;SDS011;60354;47.798;12.472;2022-11-25T01:50:19;5.38;;;3.28;;
72379;SDS011;60354;47.798;12.472;2022-11-25T01:52:49;5.88;;;3.25;;
72379;SDS011;60354;47.798;12.472;2022-11-25T01:55:20;5.22;;;3.10;;
72379;SDS011;60354;47.798;12.472;2022-11-25T02:00:31;5.90;;;3.35;;
72379;SDS011;60354;47.798;12.472;2022-11-25T02:02:56;6.20;;;3.47;;
72379;SDS011;60354;47.798;12.472;2022-11-25T02:05:28;6.65;;;3.53;;
72379;SDS011;60354;47.798;12.472;2022-11-25T02:08:00;6.90;;;3.88;;
72379;SDS011;60354;47.798;12.472;2022-11-25T02:10:27;6.85;;;3.67;;
72379;SDS011;60354;47.798;12.472;2022-11-25T02:12:54;5.00;;;3.22;;
72379;SDS011;60354;47.798;12.472;2022-11-25T02:15:21;6.32;;;3.33;;
72379;SDS011;60354;47.798;12.472;2022-11-25T02:17:47;5.35;;;3.38;;
72379;SDS011;60354;47.798;12.472;2022-11-25T02:20:14;4.40;;;3.10;;
72379;SDS011;60354;47.798;12.472;2022-11-25T02:25:34;4.43;;;2.70;;
72379;SDS011;60354;47.798;12.472;2022-11-25T02:28:22;5.10;;;2.50;;
72379;SDS011;60354;47.798;12.472;2022-11-25T02:30:50;3.63;;;2.10;;
72379;SDS011;60354;47.798;12.472;2022-11-25T02:33:17;3.67;;;2.38;;
72379;SDS011;60354;47.798;12.472;2022-11-25T02:35:45;3.60;;;2.35;;
72379;SDS011;60354;47.798;12.472;2022-11-25T02:43:30;4.15;;;2.53;;
72379;SDS011;60354;47.798;12.472;2022-11-25T02:46:00;4.13;;;2.63;;
72379;SDS011;60354;47.798;12.472;2022-11-25T02:48:32;3.10;;;2.10;;
72379;SDS011;60354;47.798;12.472;2022-11-25T02:50:59;3.88;;;2.35;;
72379;SDS011;60354;47.798;12.472;2022-11-25T02:53:24;5.05;;;2.78;;
72379;SDS011;60354;47.798;12.472;2022-11-25T02:55:50;4.60;;;2.42;;
72379;SDS011;60354;47.798;12.472;2022-11-25T02:58:16;3.53;;;2.38;;
72379;SDS011;60354;47.798;12.472;2022-11-25T03:00:42;3.95;;;2.30;;
72379;SDS011;60354;47.798;12.472;2022-11-25T03:03:08;3.92;;;2.40;;
72379;SDS011;60354;47.798;12.472;2022-11-25T03:05:34;5.47;;;2.25;;
72379;SDS011;60354;47.798;12.472;2022-11-25T03:08:00;3.40;;;2.33;;
72379;SDS011;60354;47.798;12.472;2022-11-25T03:10:27;2.85;;;2.28;;
72379;SDS011;60354;47.798;12.472;2022-11-25T03:12:52;4.38;;;2.40;;
72379;SDS011;60354;47.798;12.472;2022-11-25T03:15:21;3.40;;;2.33;;
72379;SDS011;60354;47.798;12.472;2022-11-25T03:17:47;4.55;;;2.67;;
72379;SDS011;60354;47.798;12.472;2022-11-25T03:20:13;6.32;;;2.53;;
72379;SDS011;60354;47.798;12.472;2022-11-25T03:22:39;3.92;;;2.35;;
72379;SDS011;60354;47.798;12.472;2022-11-25T03:25:09;3.50;;;2.40;;
72379;SDS011;60354;47.798;12.472;2022-11-25T03:27:36;4.03;;;2.72;;
72379;SDS011;60354;47.798;12.472;2022-11-25T03:30:03;4.07;;;2.38;;
72379;SDS011;60354;47.798;12.472;2022-11-25T03:32:30;4.05;;;2.20;;
72379;SDS011;60354;47.798;12.472;2022-11-25T03:34:56;4.22;;;2.42;;
72379;SDS011;60354;47.798;12.472;2022-11-25T03:37:22;4.10;;;2.22;;
72379;SDS011;60354;47.798;12.472;2022-11-25T03:39:47;4.30;;;2.50;;
72379;SDS011;60354;47.798;12.472;2022-11-25T03:42:13;5.30;;;2.25;;
72379;SDS011;60354;47.798;12.472;2022-11-25T03:44:38;4.03;;;2.05;;
72379;SDS011;60354;47.798;12.472;2022-11-25T03:47:04;3.42;;;2.15;;
72379;SDS011;60354;47.798;12.472;2022-11-25T03:49:30;3.75;;;1.98;;
72379;SDS011;60354;47.798;12.472;2022-11-25T03:51:56;3.45;;;2.00;;
72379;SDS011;60354;47.798;12.472;2022-11-25T03:54:22;3.30;;;2.20;;
72379;SDS011;60354;47.798;12.472;2022-11-25T03:57:06;4.50;;;2.20;;
72379;SDS011;60354;47.798;12.472;2022-11-25T03:59:33;4.43;;;2.50;;
72379;SDS011;60354;47.798;12.472;2022-11-25T04:01:59;3.15;;;2.13;;
72379;SDS011;60354;47.798;12.472;2022-11-25T04:04:25;4.72;;;2.28;;
72379;SDS011;60354;47.798;12.472;2022-11-25T04:06:51;5.25;;;2.30;;
72379;SDS011;60354;47.798;12.472;2022-11-25T04:09:17;3.72;;;2.10;;
72379;SDS011;60354;47.798;12.472;2022-11-25T04:11:42;2.97;;;2.10;;
72379;SDS011;60354;47.798;12.472;2022-11-25T04:14:35;3.97;;;2.42;;
72379;SDS011;60354;47.798;12.472;2022-11-25T04:17:01;3.80;;;2.38;;
72379;SDS011;60354;47.798;12.472;2022-11-25T04:19:26;3.13;;;2.13;;
72379;SDS011;60354;47.798;12.472;2022-11-25T04:21:52;3.60;;;2.28;;
72379;SDS011;60354;47.798;12.472;2022-11-25T04:24:19;3.42;;;2.58;;
72379;SDS011;60354;47.798;12.472;2022-11-25T04:26:45;4.45;;;2.40;;
72379;SDS011;60354;47.798;12.472;2022-11-25T04:29:11;3.55;;;2.40;;
72379;SDS011;60354;47.798;12.472;2022-11-25T04:31:41;3.15;;;2.28;;
72379;SDS011;60354;47.798;12.472;2022-11-25T04:34:06;4.25;;;2.25;;
72379;SDS011;60354;47.798;12.472;2022-11-25T04:36:32;4.18;;;2.30;;
72379;SDS011;60354;47.798;12.472;2022-11-25T04:38:59;3.53;;;1.95;;
72379;SDS011;60354;47.798;12.472;2022-11-25T04:41:24;2.85;;;2.15;;
72379;SDS011;60354;47.798;12.472;2022-11-25T04:43:50;2.88;;;1.95;;
72379;SDS011;60354;47.798;12.472;2022-11-25T04:46:17;3.50;;;2.20;;
72379;SDS011;60354;47.798;12.472;2022-11-25T04:48:48;5.18;;;2.05;;
72379;SDS011;60354;47.798;12.472;2022-11-25T04:51:14;3.78;;;2.38;;
72379;SDS011;60354;47.798;12.472;2022-11-25T04:53:41;3.45;;;2.60;;
72379;SDS011;60354;47.798;12.472;2022-11-25T04:56:10;3.60;;;2.10;;
72379;SDS011;60354;47.798;12.472;2022-11-25T04:58:43;7.32;;;2.55;;
72379;SDS011;60354;47.798;12.472;2022-11-25T05:01:27;4.13;;;2.53;;
72379;SDS011;60354;47.798;12.472;2022-11-25T05:06:26;3.33;;;2.30;;
72379;SDS011;60354;47.798;12.472;2022-11-25T05:08:52;5.50;;;3.00;;
72379;SDS011;60354;47.798;12.472;2022-11-25T05:11:19;5.03;;;2.10;;
72379;SDS011;60354;47.798;12.472;2022-11-25T05:13:45;3.70;;;2.22;;
72379;SDS011;60354;47.798;12.472;2022-11-25T05:16:11;4.45;;;2.50;;
72379;SDS011;60354;47.798;12.472;2022-11-25T05:18:36;5.75;;;3.50;;
72379;SDS011;60354;47.798;12.472;2022-11-25T05:21:02;6.43;;;2.50;;
72379;SDS011;60354;47.798;12.472;2022-11-25T05:23:32;4.78;;;3.47;;
72379;SDS011;60354;47.798;12.472;2022-11-25T05:26:02;4.57;;;3.05;;
72379;SDS011;60354;47.798;12.472;2022-11-25T05:28:34;5.97;;;3.92;;
72379;SDS011;60354;47.798;12.472;2022-11-25T05:31:00;5.15;;;2.60;;
72379;SDS011;60354;47.798;12.472;2022-11-25T05:33:25;3.35;;;2.20;;
72379;SDS011;60354;47.798;12.472;2022-11-25T05:35:55;3.88;;;2.35;;
72379;SDS011;60354;47.798;12.472;2022-11-25T05:38:27;5.32;;;2.20;;
72379;SDS011;60354;47.798;12.472;2022-11-25T05:40:58;3.97;;;2.40;;
72379;SDS011;60354;47.798;12.472;2022-11-25T05:43:26;3.40;;;2.50;;
72379;SDS011;60354;47.798;12.472;2022-11-25T05:48:32;4.97;;;2.40;;
72379;SDS011;60354;47.798;12.472;2022-11-25T05:50:58;3.38;;;2.30;;
72379;SDS011;60354;47.798;12.472;2022-11-25T05:53:26;3.15;;;2.17;;
72379;SDS011;60354;47.798;12.472;2022-11-25T05:55:55;3.40;;;2.28;;
72379;SDS011;60354;47.798;12.472;2022-11-25T05:58:42;3.45;;;2.13;;
72379;SDS011;60354;47.798;12.472;2022-11-25T06:01:08;3.65;;;2.30;;
72379;SDS011;60354;47.798;12.472;2022-11-25T06:03:35;3.42;;;2.20;;
72379;SDS011;60354;47.798;12.472;2022-11-25T06:06:02;2.95;;;2.10;;
72379;SDS011;60354;47.798;12.472;2022-11-25T06:08:30;3.28;;;2.38;;
72379;SDS011;60354;47.798;12.472;2022-11-25T06:10:56;4.38;;;2.70;;
72379;SDS011;60354;47.798;12.472;2022-11-25T06:13:21;4.65;;;2.70;;
72379;SDS011;60354;47.798;12.472;2022-11-25T06:15:47;4.18;;;2.65;;
72379;SDS011;60354;47.798;12.472;2022-11-25T06:18:16;5.03;;;3.20;;
72379;SDS011;60354;47.798;12.472;2022-11-25T06:20:44;4.68;;;3.20;;
72379;SDS011;60354;47.798;12.472;2022-11-25T06:23:10;4.15;;;2.83;;
72379;SDS011;60354;47.798;12.472;2022-11-25T06:25:36;4.53;;;2.80;;
72379;SDS011;60354;47.798;12.472;2022-11-25T06:28:02;4.78;;;3.13;;
72379;SDS011;60354;47.798;12.472;2022-11-25T06:30:28;5.90;;;3.30;;
72379;SDS011;60354;47.798;12.472;2022-11-25T06:33:26;4.35;;;2.53;;
72379;SDS011;60354;47.798;12.472;2022-11-25T06:35:53;5.45;;;3.03;;
72379;SDS011;60354;47.798;12.472;2022-11-25T06:38:18;4.55;;;2.92;;
72379;SDS011;60354;47.798;12.472;2022-11-25T06:40:44;4.75;;;2.85;;
72379;SDS011;60354;47.798;12.472;2022-11-25T06:43:09;4.93;;;3.00;;
72379;SDS011;60354;47.798;12.472;2022-11-25T06:45:35;4.15;;;2.75;;
72379;SDS011;60354;47.798;12.472;2022-11-25T06:48:00;3.83;;;2.53;;
72379;SDS011;60354;47.798;12.472;2022-11-25T06:50:25;4.55;;;2.75;;
72379;SDS011;60354;47.798;12.472;2022-11-25T06:52:51;3.90;;;2.33;;
72379;SDS011;60354;47.798;12.472;2022-11-25T06:55:16;3.40;;;2.50;;
72379;SDS011;60354;47.798;12.472;2022-11-25T06:57:42;6.32;;;2.85;;
72379;SDS011;60354;47.798;12.472;2022-11-25T07:00:07;4.57;;;2.65;;
72379;SDS011;60354;47.798;12.472;2022-11-25T07:02:33;5.80;;;2.60;;
72379;SDS011;60354;47.798;12.472;2022-11-25T07:04:59;4.65;;;2.70;;
72379;SDS011;60354;47.798;12.472;2022-11-25T07:07:24;5.60;;;2.78;;
72379;SDS011;60354;47.798;12.472;2022-11-25T07:09:49;4.10;;;2.80;;
72379;SDS011;60354;47.798;12.472;2022-11-25T07:12:15;4.70;;;2.55;;
72379;SDS011;60354;47.798;12.472;2022-11-25T07:14:40;4.95;;;3.20;;
72379;SDS011;60354;47.798;12.472;2022-11-25T07:17:09;5.22;;;3.25;;
72379;SDS011;60354;47.798;12.472;2022-11-25T07:19:34;4.20;;;2.72;;
72379;SDS011;60354;47.798;12.472;2022-11-25T07:22:00;5.57;;;2.97;;
72379;SDS011;60354;47.798;12.472;2022-11-25T07:24:26;4.45;;;3.00;;
72379;SDS011;60354;47.798;12.472;2022-11-25T07:26:51;5.20;;;3.30;;
72379;SDS011;60354;47.798;12.472;2022-11-25T07:29:17;5.22;;;3.17;;
72379;SDS011;60354;47.798;12.472;2022-11-25T07:31:44;4.85;;;3.15;;
72379;SDS011;60354;47.798;12.472;2022-11-25T07:34:11;6.40;;;3.42;;
72379;SDS011;60354;47.798;12.472;2022-11-25T07:36:42;5.45;;;3.35;;
72379;SDS011;60354;47.798;12.472;2022-11-25T07:39:12;7.95;;;3.80;;
72379;SDS011;60354;47.798;12.472;2022-11-25T07:41:40;6.15;;;3.13;;
72379;SDS011;60354;47.798;12.472;2022-11-25T07:44:06;7.45;;;3.30;;
72379;SDS011;60354;47.798;12.472;2022-11-25T07:47:03;5.97;;;3.20;;
72379;SDS011;60354;47.798;12.472;2022-11-25T07:49:28;5.07;;;2.72;;
72379;SDS011;60354;47.798;12.472;2022-11-25T07:51:55;7.30;;;3.10;;
72379;SDS011;60354;47.798;12.472;2022-11-25T07:54:23;6.10;;;3.10;;
72379;SDS011;60354;47.798;12.472;2022-11-25T07:56:49;4.93;;;2.70;;
72379;SDS011;60354;47.798;12.472;2022-11-25T07:59:16;4.38;;;2.90;;
72379;SDS011;60354;47.798;12.472;2022-11-25T08:01:43;4.15;;;2.45;;
72379;SDS011;60354;47.798;12.472;2022-11-25T08:04:09;4.50;;;2.90;;
72379;SDS011;60354;47.798;12.472;2022-11-25T08:06:38;5.43;;;2.78;;
72379;SDS011;60354;47.798;12.472;2022-11-25T08:09:07;5.18;;;2.72;;
72379;SDS011;60354;47.798;12.472;2022-11-25T08:11:33;3.97;;;2.40;;
72379;SDS011;60354;47.798;12.472;2022-11-25T08:13:59;4.25;;;2.63;;
72379;SDS011;60354;47.798;12.472;2022-11-25T08:16:27;3.13;;;1.70;;
72379;SDS011;60354;47.798;12.472;2022-11-25T08:18:55;3.20;;;1.80;;
72379;SDS011;60354;47.798;12.472;2022-11-25T08:21:22;4.15;;;2.00;;
72379;SDS011;60354;47.798;12.472;2022-11-25T08:23:49;3.95;;;1.95;;
72379;SDS011;60354;47.798;12.472;2022-11-25T08:28:59;4.82;;;2.40;;
72379;SDS011;60354;47.798;12.472;2022-11-25T08:31:30;3.08;;;1.88;;
72379;SDS011;60354;47.798;12.472;2022-11-25T08:34:00;3.53;;;2.03;;
72379;SDS011;60354;47.798;12.472;2022-11-25T08:36:26;4.85;;;2.35;;
72379;SDS011;60354;47.798;12.472;2022-11-25T08:38:53;3.45;;;1.90;;
72379;SDS011;60354;47.798;12.472;2022-11-25T08:41:23;4.18;;;2.20;;
72379;SDS011;60354;47.798;12.472;2022-11-25T08:43:50;4.32;;;2.03;;
72379;SDS011;60354;47.798;12.472;2022-11-25T08:46:20;5.28;;;2.17;;
72379;SDS011;60354;47.798;12.472;2022-11-25T08:48:47;3.92;;;2.20;;
72379;SDS011;60354;47.798;12.472;2022-11-25T08:51:18;2.95;;;1.98;;
72379;SDS011;60354;47.798;12.472;2022-11-25T08:53:45;3.45;;;2.00;;
72379;SDS011;60354;47.798;12.472;2022-11-25T08:56:11;2.72;;;1.70;;
72379;SDS011;60354;47.798;12.472;2022-11-25T08:58:37;3.53;;;2.03;;
72379;SDS011;60354;47.798;12.472;2022-11-25T09:01:03;4.10;;;2.05;;
72379;SDS011;60354;47.798;12.472;2022-11-25T09:03:31;3.40;;;2.20;;
72379;SDS011;60354;47.798;12.472;2022-11-25T09:06:01;4.20;;;2.20;;
72379;SDS011;60354;47.798;12.472;2022-11-25T09:08:27;3.33;;;2.40;;
72379;SDS011;60354;47.798;12.472;2022-11-25T09:10:54;3.10;;;2.10;;
72379;SDS011;60354;47.798;12.472;2022-11-25T09:13:19;2.72;;;2.00;;
72379;SDS011;60354;47.798;12.472;2022-11-25T09:15:45;3.45;;;1.90;;
72379;SDS011;60354;47.798;12.472;2022-11-25T09:18:10;3.10;;;1.80;;
72379;SDS011;60354;47.798;12.472;2022-11-25T09:20:37;3.33;;;1.83;;
72379;SDS011;60354;47.798;12.472;2022-11-25T09:23:04;4.43;;;1.90;;
72379;SDS011;60354;47.798;12.472;2022-11-25T09:25:30;3.15;;;1.63;;
72379;SDS011;60354;47.798;12.472;2022-11-25T09:27:56;3.20;;;1.83;;
72379;SDS011;60354;47.798;12.472;2022-11-25T09:30:24;3.10;;;1.90;;
72379;SDS011;60354;47.798;12.472;2022-11-25T09:32:51;3.78;;;1.80;;
72379;SDS011;60354;47.798;12.472;2022-11-25T09:35:18;2.47;;;1.67;;
72379;SDS011;60354;47.798;12.472;2022-11-25T09:37:44;2.55;;;1.65;;
72379;SDS011;60354;47.798;12.472;2022-11-25T10:00:00;5.57;;;2.05;;
72379;SDS011;60354;47.798;12.472;2022-11-25T10:02:44;4.85;;;2.30;;
72379;SDS011;60354;47.798;12.472;2022-11-25T10:05:22;2.90;;;1.85;;
72379;SDS011;60354;47.798;12.472;2022-11-25T10:07:51;2.47;;;1.60;;
72379;SDS011;60354;47.798;12.472;2022-11-25T10:10:25;3.00;;;1.90;;
72379;SDS011;60354;47.798;12.472;2022-11-25T10:12:53;3.97;;;1.60;;
72379;SDS011;60354;47.798;12.472;2022-11-25T10:17:52;3.40;;;1.65;;
72379;SDS011;60354;47.798;12.472;2022-11-25T10:20:29;2.35;;;1.65;;
72379;SDS011;60354;47.798;12.472;2022-11-25T10:23:11;7.47;;;1.80;;
72379;SDS011;60354;47.798;12.472;2022-11-25T10:25:46;3.92;;;1.65;;
72379;SDS011;60354;47.798;12.472;2022-11-25T10:28:29;4.43;;;1.80;;
72379;SDS011;60354;47.798;12.472;2022-11-25T10:36:16;2.33;;;1.50;;
72379;SDS011;60354;47.798;12.472;2022-11-25T10:38:54;4.28;;;1.75;;
72379;SDS011;60354;47.798;12.472;2022-11-25T10:41:22;2.53;;;1.50;;
72379;SDS011;60354;47.798;12.472;2022-11-25T10:43:50;4.47;;;1.40;;
72379;SDS011;60354;47.798;12.472;2022-11-25T10:48:55;3.22;;;1.50;;
72379;SDS011;60354;47.798;12.472;2022-11-25T10:59:24;1.83;;;1.30;;
72379;SDS011;60354;47.798;12.472;2022-11-25T11:07:24;3.13;;;1.60;;
72379;SDS011;60354;47.798;12.472;2022-11-25T11:09:54;2.72;;;1.27;;
72379;SDS011;60354;47.798;12.472;2022-11-25T11:15:23;8.90;;;1.90;;
72379;SDS011;60354;47.798;12.472;2022-11-25T11:21:20;5.00;;;1.42;;
72379;SDS011;60354;47.798;12.472;2022-11-25T11:23:52;1.98;;;1.20;;
72379;SDS011;60354;47.798;12.472;2022-11-25T11:26:23;2.83;;;1.40;;
72379;SDS011;60354;47.798;12.472;2022-11-25T11:28:58;3.60;;;1.30;;
72379;SDS011;60354;47.798;12.472;2022-11-25T11:31:31;3.35;;;1.20;;
72379;SDS011;60354;47.798;12.472;2022-11-25T11:39:14;2.75;;;1.70;;
72379;SDS011;60354;47.798;12.472;2022-11-25T11:42:31;5.45;;;2.30;;
72379;SDS011;60354;47.798;12.472;2022-11-25T11:47:22;7.20;;;2.40;;
72379;SDS011;60354;47.798;12.472;2022-11-25T11:55:22;6.28;;;3.17;;
72379;SDS011;60354;47.798;12.472;2022-11-25T11:58:03;4.70;;;2.92;;
72379;SDS011;60354;47.798;12.472;2022-11-25T12:01:03;5.50;;;2.55;;
72379;SDS011;60354;47.798;12.472;2022-11-25T12:03:29;7.32;;;2.10;;
72379;SDS011;60354;47.798;12.472;2022-11-25T12:06:08;5.50;;;1.30;;
72379;SDS011;60354;47.798;12.472;2022-11-25T12:11:24;5.30;;;1.50;;
72379;SDS011;60354;47.798;12.472;2022-11-25T12:14:10;6.32;;;1.80;;
72379;SDS011;60354;47.798;12.472;2022-11-25T12:17:06;5.13;;;2.03;;
72379;SDS011;60354;47.798;12.472;2022-11-25T12:19:41;3.92;;;1.80;;
72379;SDS011;60354;47.798;12.472;2022-11-25T12:22:27;2.33;;;1.50;;
72379;SDS011;60354;47.798;12.472;2022-11-25T12:25:16;3.83;;;2.00;;
72379;SDS011;60354;47.798;12.472;2022-11-25T12:28:00;3.45;;;1.80;;
72379;SDS011;60354;47.798;12.472;2022-11-25T12:30:35;3.35;;;1.90;;
72379;SDS011;60354;47.798;12.472;2022-11-25T12:36:03;2.75;;;1.50;;
72379;SDS011;60354;47.798;12.472;2022-11-25T12:46:48;3.13;;;1.60;;
72379;SDS011;60354;47.798;12.472;2022-11-25T12:49:18;5.93;;;1.80;;
72379;SDS011;60354;47.798;12.472;2022-11-25T13:10:38;2.70;;;1.52;;
72379;SDS011;60354;47.798;12.472;2022-11-25T13:13:32;3.60;;;1.65;;
72379;SDS011;60354;47.798;12.472;2022-11-25T13:16:07;2.75;;;1.50;;
72379;SDS011;60354;47.798;12.472;2022-11-25T13:18:36;2.55;;;1.30;;
72379;SDS011;60354;47.798;12.472;2022-11-25T13:21:08;4.05;;;1.45;;
72379;SDS011;60354;47.798;12.472;2022-11-25T13:23:40;2.80;;;1.30;;
72379;SDS011;60354;47.798;12.472;2022-11-25T13:28:58;4.00;;;1.83;;
72379;SDS011;60354;47.798;12.472;2022-11-25T13:31:32;3.53;;;1.67;;
72379;SDS011;60354;47.798;12.472;2022-11-25T13:34:06;3.60;;;1.58;;
72379;SDS011;60354;47.798;12.472;2022-11-25T13:36:56;1.93;;;1.40;;
72379;SDS011;60354;47.798;12.472;2022-11-25T13:39:35;2.50;;;1.40;;
72379;SDS011;60354;47.798;12.472;2022-11-25T13:44:28;2.75;;;1.60;;
72379;SDS011;60354;47.798;12.472;2022-11-25T13:47:20;4.45;;;1.77;;
72379;SDS011;60354;47.798;12.472;2022-11-25T13:52:36;3.92;;;1.67;;
72379;SDS011;60354;47.798;12.472;2022-11-25T13:55:50;3.35;;;1.90;;
72379;SDS011;60354;47.798;12.472;2022-11-25T14:08:58;1.50;;;1.15;;
72379;SDS011;60354;47.798;12.472;2022-11-25T14:27:03;3.05;;;1.30;;
72379;SDS011;60354;47.798;12.472;2022-11-25T14:31:57;3.97;;;1.45;;
72379;SDS011;60354;47.798;12.472;2022-11-25T14:45:49;10.35;;;2.10;;
72379;SDS011;60354;47.798;12.472;2022-11-25T14:48:54;4.60;;;1.80;;
72379;SDS011;60354;47.798;12.472;2022-11-25T14:51:24;4.07;;;1.70;;
72379;SDS011;60354;47.798;12.472;2022-11-25T14:53:52;3.55;;;2.00;;
72379;SDS011;60354;47.798;12.472;2022-11-25T14:56:36;3.05;;;1.50;;
72379;SDS011;60354;47.798;12.472;2022-11-25T14:59:03;5.18;;;1.67;;
72379;SDS011;60354;47.798;12.472;2022-11-25T15:01:32;2.15;;;1.40;;
72379;SDS011;60354;47.798;12.472;2022-11-25T15:04:00;2.20;;;1.50;;
72379;SDS011;60354;47.798;12.472;2022-11-25T15:06:33;4.82;;;2.60;;
72379;SDS011;60354;47.798;12.472;2022-11-25T15:09:03;8.68;;;2.70;;
72379;SDS011;60354;47.798;12.472;2022-11-25T15:11:43;4.22;;;2.58;;
72379;SDS011;60354;47.798;12.472;2022-11-25T15:14:14;7.10;;;3.72;;
72379;SDS011;60354;47.798;12.472;2022-11-25T15:16:48;13.05;;;7.10;;
72379;SDS011;60354;47.798;12.472;2022-11-25T15:19:15;9.70;;;5.40;;
72379;SDS011;60354;47.798;12.472;2022-11-25T15:21:43;5.05;;;2.58;;
72379;SDS011;60354;47.798;12.472;2022-11-25T15:27:18;12.20;;;6.55;;
72379;SDS011;60354;47.798;12.472;2022-11-25T15:29:54;10.18;;;5.68;;
72379;SDS011;60354;47.798;12.472;2022-11-25T15:32:28;8.57;;;4.32;;
72379;SDS011;60354;47.798;12.472;2022-11-25T15:35:00;5.68;;;3.40;;
72379;SDS011;60354;47.798;12.472;2022-11-25T15:37:26;4.32;;;2.45;;
72379;SDS011;60354;47.798;12.472;2022-11-25T15:42:56;7.13;;;2.80;;
72379;SDS011;60354;47.798;12.472;2022-11-25T15:45:23;6.20;;;2.42;;
72379;SDS011;60354;47.798;12.472;2022-11-25T15:47:51;3.13;;;2.10;;
72379;SDS011;60354;47.798;12.472;2022-11-25T15:50:23;3.42;;;2.28;;
72379;SDS011;60354;47.798;12.472;2022-11-25T15:52:53;2.85;;;1.90;;
72379;SDS011;60354;47.798;12.472;2022-11-25T15:55:31;6.88;;;1.90;;
72379;SDS011;60354;47.798;12.472;2022-11-25T15:58:02;3.78;;;2.00;;
72379;SDS011;60354;47.798;12.472;2022-11-25T16:00:29;4.85;;;2.90;;
72379;SDS011;60354;47.798;12.472;2022-11-25T16:02:54;10.45;;;4.55;;
72379;SDS011;60354;47.798;12.472;2022-11-25T16:05:25;6.07;;;3.00;;
72379;SDS011;60354;47.798;12.472;2022-11-25T16:15:44;4.82;;;2.78;;
72379;SDS011;60354;47.798;12.472;2022-11-25T16:18:17;8.07;;;4.50;;
72379;SDS011;60354;47.798;12.472;2022-11-25T16:20:51;5.20;;;3.10;;
72379;SDS011;60354;47.798;12.472;2022-11-25T16:23:20;8.43;;;3.33;;
72379;SDS011;60354;47.798;12.472;2022-11-25T16:25:50;5.88;;;2.92;;
72379;SDS011;60354;47.798;12.472;2022-11-25T16:28:39;5.30;;;2.83;;
72379;SDS011;60354;47.798;12.472;2022-11-25T16:31:12;6.95;;;3.17;;
72379;SDS011;60354;47.798;12.472;2022-11-25T16:33:40;5.88;;;3.40;;
72379;SDS011;60354;47.798;12.472;2022-11-25T16:36:05;6.88;;;2.92;;
72379;SDS011;60354;47.798;12.472;2022-11-25T16:38:31;5.50;;;3.30;;
72379;SDS011;60354;47.798;12.472;2022-11-25T16:40:57;4.93;;;2.40;;
72379;SDS011;60354;47.798;12.472;2022-11-25T16:43:23;4.22;;;2.47;;
72379;SDS011;60354;47.798;12.472;2022-11-25T16:45:51;6.07;;;2.72;;
72379;SDS011;60354;47.798;12.472;2022-11-25T16:48:19;4.95;;;2.78;;
72379;SDS011;60354;47.798;12.472;2022-11-25T16:50:46;5.93;;;2.70;;
72379;SDS011;60354;47.798;12.472;2022-11-25T16:53:12;4.43;;;2.25;;
72379;SDS011;60354;47.798;12.472;2022-11-25T16:55:38;6.70;;;2.78;;
72379;SDS011;60354;47.798;12.472;2022-11-25T16:58:10;11.30;;;6.95;;
72379;SDS011;60354;47.798;12.472;2022-11-25T17:00:42;11.50;;;6.75;;
72379;SDS011;60354;47.798;12.472;2022-11-25T17:03:10;8.43;;;4.38;;
72379;SDS011;60354;47.798;12.472;2022-11-25T17:05:36;6.50;;;3.63;;
72379;SDS011;60354;47.798;12.472;2022-11-25T17:08:02;7.20;;;3.20;;
72379;SDS011;60354;47.798;12.472;2022-11-25T17:10:27;5.05;;;3.30;;
72379;SDS011;60354;47.798;12.472;2022-11-25T17:12:53;9.93;;;3.40;;
72379;SDS011;60354;47.798;12.472;2022-11-25T17:15:21;6.78;;;3.53;;
72379;SDS011;60354;47.798;12.472;2022-11-25T17:17:53;8.73;;;4.95;;
72379;SDS011;60354;47.798;12.472;2022-11-25T17:20:20;9.75;;;5.18;;
72379;SDS011;60354;47.798;12.472;2022-11-25T17:22:48;9.63;;;4.50;;
72379;SDS011;60354;47.798;12.472;2022-11-25T17:25:18;7.35;;;4.28;;
72379;SDS011;60354;47.798;12.472;2022-11-25T17:27:45;8.55;;;4.35;;
72379;SDS011;60354;47.798;12.472;2022-11-25T17:32:55;11.63;;;5.55;;
72379;SDS011;60354;47.798;12.472;2022-11-25T17:35:24;10.25;;;5.43;;
72379;SDS011;60354;47.798;12.472;2022-11-25T17:37:50;9.27;;;4.75;;
72379;SDS011;60354;47.798;12.472;2022-11-25T17:40:18;7.30;;;4.22;;
72379;SDS011;60354;47.798;12.472;2022-11-25T17:42:44;7.57;;;4.13;;
72379;SDS011;60354;47.798;12.472;2022-11-25T17:45:13;9.80;;;4.75;;
72379;SDS011;60354;47.798;12.472;2022-11-25T17:47:41;9.40;;;4.85;;
72379;SDS011;60354;47.798;12.472;2022-11-25T17:50:24;7.55;;;4.50;;
72379;SDS011;60354;47.798;12.472;2022-11-25T17:55:16;10.00;;;4.95;;
72379;SDS011;60354;47.798;12.472;2022-11-25T17:57:50;7.05;;;4.20;;